Airport View

Enter AWOS ICAO identifier for current METAR.

ex. KFNL

KCKM 251655Z AUTO 01004KT 10SM 13/12 A3005 RMK A01

25 Oct 2020 17:13

Frequency: 120.675

Phone: 662-624-9777

Other Area AWOS: KUTA - KPMU - KRNV - KUOX

TAF AMD KMEM 251453Z 2515/2618 02005KT P6SM OVC006 FM252000 01005KT P6SM OVC020 FM260300 01005KT P6SM BKN025 FM260600 02004KT P6SM OVC010 FM261200 02006KT P6SM OVC020